KBIS

Bismarck Municipal Airport

Bismarck, North Dakota, USA
KBIS 210539Z 2106/2206 29003KT P6SM BKN200 FM211800 19005KT P6SM BKN200 FM220000 16005KT P6SM SCT250
Issued Valid From Valid To
Jun-21 @ 05:39 UTC
(4 hours ago)
Jun-21 @ 06:00 UTC
(4 hours ago)
Jun-22 @ 06:00 UTC
(in 20 hours)
Jun-21 @ 06:00 to Jun-21 @ 18:00
KBIS 210539Z 2106/2206 29003KT P6SM BKN200
Wind Visibility Clouds
290° at 3 knots Greater than 6 miles
  • Broken at 20,000' AGL
From Jun-21 @ 18:00 to Jun-22 @ 00:00
FM211800 19005KT P6SM BKN200
Wind Visibility Clouds
190° at 5 knots Greater than 6 miles
  • Broken at 20,000' AGL
From Jun-22 @ 00:00 to Jun-22 @ 06:00
FM220000 16005KT P6SM SCT250
Wind Visibility Clouds
160° at 5 knots Greater than 6 miles
  • Scattered at 25,000' AGL
KBIS 210539Z 2106/2206 29003KT P6SM BKN200 FM211800 19005KT P6SM BKN200 FM220000 16005KT P6SM SCT250
Issued Jun-21 @ 05:39 UTC
(4 hours ago)
Valid From Jun-21 @ 06:00 UTC
(4 hours ago)
Valid To Jun-22 @ 06:00 UTC
(in 20 hours)
Jun-21 @ 06:00 - Jun-21 @ 18:00
Wind Visibility
290° at 3 knots Greater than 6 miles
Clouds
  • Broken at 20,000' AGL
From Jun-21 @ 18:00 - Jun-22 @ 00:00
Wind Visibility
190° at 5 knots Greater than 6 miles
Clouds
  • Broken at 20,000' AGL
From Jun-22 @ 00:00 - Jun-22 @ 06:00
Wind Visibility
160° at 5 knots Greater than 6 miles
Clouds
  • Scattered at 25,000' AGL